sensor_id;sensor_type;location;lat;lon;timestamp;pressure;altitude;pressure_sealevel;temperature;humidity
62849;BME280;48941;49.516;8.286;2023-11-21T00:00:31;99734.00;;;9.68;100.00
62849;BME280;48941;49.516;8.286;2023-11-21T00:02:59;99740.03;;;9.70;100.00
62849;BME280;48941;49.516;8.286;2023-11-21T00:05:29;99730.22;;;9.70;100.00
62849;BME280;48941;49.516;8.286;2023-11-21T00:07:56;99732.06;;;9.70;100.00
62849;BME280;48941;49.516;8.286;2023-11-21T00:10:24;99732.34;;;9.67;100.00
62849;BME280;48941;49.516;8.286;2023-11-21T00:12:53;99734.13;;;9.66;100.00
62849;BME280;48941;49.516;8.286;2023-11-21T00:15:21;99735.38;;;9.62;100.00
62849;BME280;48941;49.516;8.286;2023-11-21T00:17:49;99736.25;;;9.63;100.00
62849;BME280;48941;49.516;8.286;2023-11-21T00:20:17;99728.28;;;9.63;100.00
62849;BME280;48941;49.516;8.286;2023-11-21T00:22:46;99729.22;;;9.62;100.00
62849;BME280;48941;49.516;8.286;2023-11-21T00:25:14;99723.78;;;9.63;100.00
62849;BME280;48941;49.516;8.286;2023-11-21T00:27:44;99724.63;;;9.64;100.00
62849;BME280;48941;49.516;8.286;2023-11-21T00:30:13;99720.28;;;9.63;100.00
62849;BME280;48941;49.516;8.286;2023-11-21T00:32:41;99729.09;;;9.63;100.00
62849;BME280;48941;49.516;8.286;2023-11-21T00:35:09;99723.31;;;9.58;100.00
62849;BME280;48941;49.516;8.286;2023-11-21T00:37:39;99725.56;;;9.53;100.00
62849;BME280;48941;49.516;8.286;2023-11-21T00:40:10;99723.59;;;9.55;100.00
62849;BME280;48941;49.516;8.286;2023-11-21T00:42:38;99732.28;;;9.57;100.00
62849;BME280;48941;49.516;8.286;2023-11-21T00:45:07;99725.16;;;9.57;100.00
62849;BME280;48941;49.516;8.286;2023-11-21T00:47:35;99726.13;;;9.56;100.00
62849;BME280;48941;49.516;8.286;2023-11-21T00:50:04;99716.59;;;9.54;100.00
62849;BME280;48941;49.516;8.286;2023-11-21T00:52:32;99715.47;;;9.56;100.00
62849;BME280;48941;49.516;8.286;2023-11-21T00:55:00;99718.13;;;9.56;100.00
62849;BME280;48941;49.516;8.286;2023-11-21T00:57:31;99717.31;;;9.56;100.00
62849;BME280;48941;49.516;8.286;2023-11-21T00:59:58;99719.00;;;9.57;100.00
62849;BME280;48941;49.516;8.286;2023-11-21T01:02:28;99719.00;;;9.57;100.00
62849;BME280;48941;49.516;8.286;2023-11-21T01:04:56;99717.59;;;9.53;100.00
62849;BME280;48941;49.516;8.286;2023-11-21T01:07:23;99734.38;;;9.53;100.00
62849;BME280;48941;49.516;8.286;2023-11-21T01:09:51;99725.41;;;9.54;100.00
62849;BME280;48941;49.516;8.286;2023-11-21T01:12:20;99735.19;;;9.54;100.00
62849;BME280;48941;49.516;8.286;2023-11-21T01:14:49;99735.19;;;9.54;100.00
62849;BME280;48941;49.516;8.286;2023-11-21T01:17:17;99734.50;;;9.52;100.00
62849;BME280;48941;49.516;8.286;2023-11-21T01:19:45;99741.75;;;9.50;100.00
62849;BME280;48941;49.516;8.286;2023-11-21T01:22:13;99745.00;;;9.53;100.00
62849;BME280;48941;49.516;8.286;2023-11-21T01:24:43;99743.19;;;9.54;100.00
62849;BME280;48941;49.516;8.286;2023-11-21T01:27:11;99740.53;;;9.54;100.00
62849;BME280;48941;49.516;8.286;2023-11-21T01:29:38;99749.31;;;9.54;100.00
62849;BME280;48941;49.516;8.286;2023-11-21T01:32:08;99745.97;;;9.52;100.00
62849;BME280;48941;49.516;8.286;2023-11-21T01:34:36;99744.28;;;9.51;100.00
62849;BME280;48941;49.516;8.286;2023-11-21T01:37:05;99749.50;;;9.53;100.00
62849;BME280;48941;49.516;8.286;2023-11-21T01:39:33;99745.97;;;9.52;100.00
62849;BME280;48941;49.516;8.286;2023-11-21T01:42:01;99749.50;;;9.53;100.00
62849;BME280;48941;49.516;8.286;2023-11-21T01:44:29;99752.16;;;9.53;100.00
62849;BME280;48941;49.516;8.286;2023-11-21T01:46:57;99747.91;;;9.50;100.00
62849;BME280;48941;49.516;8.286;2023-11-21T01:49:26;99748.06;;;9.49;100.00
62849;BME280;48941;49.516;8.286;2023-11-21T01:51:55;99746.94;;;9.51;100.00
62849;BME280;48941;49.516;8.286;2023-11-21T01:54:23;99744.41;;;9.50;100.00
62849;BME280;48941;49.516;8.286;2023-11-21T01:56:51;99747.78;;;9.52;100.00
62849;BME280;48941;49.516;8.286;2023-11-21T01:59:20;99747.66;;;9.53;100.00
62849;BME280;48941;49.516;8.286;2023-11-21T02:01:48;99744.59;;;9.58;100.00
62849;BME280;48941;49.516;8.286;2023-11-21T02:04:18;99749.78;;;9.60;100.00
62849;BME280;48941;49.516;8.286;2023-11-21T02:06:47;99748.66;;;9.62;100.00
62849;BME280;48941;49.516;8.286;2023-11-21T02:09:24;99743.22;;;9.64;100.00
62849;BME280;48941;49.516;8.286;2023-11-21T02:11:52;99738.75;;;9.64;100.00
62849;BME280;48941;49.516;8.286;2023-11-21T02:14:24;99748.53;;;9.64;100.00
62849;BME280;48941;49.516;8.286;2023-11-21T02:16:54;99750.25;;;9.65;100.00
62849;BME280;48941;49.516;8.286;2023-11-21T02:19:22;99761.00;;;9.63;100.00
62849;BME280;48941;49.516;8.286;2023-11-21T02:21:53;99759.06;;;9.65;100.00
62849;BME280;48941;49.516;8.286;2023-11-21T02:24:23;99753.88;;;9.64;100.00
62849;BME280;48941;49.516;8.286;2023-11-21T02:26:51;99748.41;;;9.65;100.00
62849;BME280;48941;49.516;8.286;2023-11-21T02:29:19;99746.34;;;9.69;100.00
62849;BME280;48941;49.516;8.286;2023-11-21T02:31:51;99755.28;;;9.68;100.00
62849;BME280;48941;49.516;8.286;2023-11-21T02:34:22;99750.81;;;9.68;100.00
62849;BME280;48941;49.516;8.286;2023-11-21T02:36:50;99758.06;;;9.66;100.00
62849;BME280;48941;49.516;8.286;2023-11-21T02:39:18;99755.28;;;9.68;100.00
62849;BME280;48941;49.516;8.286;2023-11-21T02:41:49;99759.06;;;9.65;100.00
62849;BME280;48941;49.516;8.286;2023-11-21T02:44:17;99745.63;;;9.67;100.00
62849;BME280;48941;49.516;8.286;2023-11-21T02:46:45;99748.84;;;9.70;100.00
62849;BME280;48941;49.516;8.286;2023-11-21T02:49:13;99750.53;;;9.71;100.00
62849;BME280;48941;49.516;8.286;2023-11-21T02:51:41;99744.25;;;9.72;100.00
62849;BME280;48941;49.516;8.286;2023-11-21T02:54:11;99747.59;;;9.74;100.00
62849;BME280;48941;49.516;8.286;2023-11-21T02:56:39;99757.69;;;9.71;100.00
62849;BME280;48941;49.516;8.286;2023-11-21T02:59:08;99748.72;;;9.72;100.00
62849;BME280;48941;49.516;8.286;2023-11-21T03:01:36;99752.38;;;9.71;100.00
62849;BME280;48941;49.516;8.286;2023-11-21T03:04:05;99753.22;;;9.71;100.00
62849;BME280;48941;49.516;8.286;2023-11-21T03:06:33;99745.94;;;9.73;100.00
62849;BME280;48941;49.516;8.286;2023-11-21T03:09:01;99745.09;;;9.73;100.00
62849;BME280;48941;49.516;8.286;2023-11-21T03:11:31;99746.19;;;9.70;100.00
62849;BME280;48941;49.516;8.286;2023-11-21T03:13:58;99750.53;;;9.71;100.00
62849;BME280;48941;49.516;8.286;2023-11-21T03:16:28;99750.41;;;9.73;100.00
62849;BME280;48941;49.516;8.286;2023-11-21T03:18:57;99753.63;;;9.67;100.00
62849;BME280;48941;49.516;8.286;2023-11-21T03:21:25;99758.59;;;9.60;100.00
62849;BME280;48941;49.516;8.286;2023-11-21T03:23:54;99755.94;;;9.60;100.00
62849;BME280;48941;49.516;8.286;2023-11-21T03:26:22;99755.94;;;9.60;100.00
62849;BME280;48941;49.516;8.286;2023-11-21T03:28:49;99758.59;;;9.60;100.00
62849;BME280;48941;49.516;8.286;2023-11-21T03:31:20;99762.38;;;9.57;100.00
62849;BME280;48941;49.516;8.286;2023-11-21T03:33:49;99755.94;;;9.60;100.00
62849;BME280;48941;49.516;8.286;2023-11-21T03:36:19;99767.09;;;9.54;100.00
62849;BME280;48941;49.516;8.286;2023-11-21T03:38:48;99765.44;;;9.53;100.00
62849;BME280;48941;49.516;8.286;2023-11-21T03:41:15;99774.78;;;9.47;100.00
62849;BME280;48941;49.516;8.286;2023-11-21T03:43:43;99777.84;;;9.43;100.00
62849;BME280;48941;49.516;8.286;2023-11-21T03:46:11;99770.81;;;9.42;100.00
62849;BME280;48941;49.516;8.286;2023-11-21T03:48:40;99774.91;;;9.46;100.00
62849;BME280;48941;49.516;8.286;2023-11-21T03:51:09;99774.47;;;9.41;100.00
62849;BME280;48941;49.516;8.286;2023-11-21T03:53:37;99773.06;;;9.46;100.00
62849;BME280;48941;49.516;8.286;2023-11-21T03:56:06;99774.84;;;9.57;100.00
62849;BME280;48941;49.516;8.286;2023-11-21T03:58:34;99772.41;;;9.54;100.00
62849;BME280;48941;49.516;8.286;2023-11-21T04:01:01;99781.03;;;9.46;100.00
62849;BME280;48941;49.516;8.286;2023-11-21T04:03:29;99778.97;;;9.50;100.00
62849;BME280;48941;49.516;8.286;2023-11-21T04:05:57;99785.28;;;9.49;100.00
62849;BME280;48941;49.516;8.286;2023-11-21T04:08:27;99782.03;;;9.45;100.00
62849;BME280;48941;49.516;8.286;2023-11-21T04:10:55;99781.31;;;9.43;100.00
62849;BME280;48941;49.516;8.286;2023-11-21T04:13:22;99786.63;;;9.43;100.00
62849;BME280;48941;49.516;8.286;2023-11-21T04:15:50;99789.88;;;9.47;100.00
62849;BME280;48941;49.516;8.286;2023-11-21T04:18:18;99791.13;;;9.43;100.00
62849;BME280;48941;49.516;8.286;2023-11-21T04:20:46;99798.88;;;9.34;100.00
62849;BME280;48941;49.516;8.286;2023-11-21T04:23:14;99793.97;;;9.30;100.00
62849;BME280;48941;49.516;8.286;2023-11-21T04:25:43;99794.78;;;9.30;100.00
62849;BME280;48941;49.516;8.286;2023-11-21T04:28:10;99796.75;;;9.28;100.00
62849;BME280;48941;49.516;8.286;2023-11-21T04:30:38;99798.31;;;9.31;100.00
62849;BME280;48941;49.516;8.286;2023-11-21T04:33:07;99801.53;;;9.34;100.00
62849;BME280;48941;49.516;8.286;2023-11-21T04:35:35;99808.47;;;9.26;100.00
62849;BME280;48941;49.516;8.286;2023-11-21T04:38:03;99812.13;;;9.25;100.00
62849;BME280;48941;49.516;8.286;2023-11-21T04:40:31;99815.34;;;9.28;100.00
62849;BME280;48941;49.516;8.286;2023-11-21T04:43:00;99826.97;;;9.27;100.00
62849;BME280;48941;49.516;8.286;2023-11-21T04:45:28;99827.78;;;9.28;100.00
62849;BME280;48941;49.516;8.286;2023-11-21T04:47:56;99834.81;;;9.29;100.00
62849;BME280;48941;49.516;8.286;2023-11-21T04:50:24;99829.22;;;9.32;100.00
62849;BME280;48941;49.516;8.286;2023-11-21T04:52:53;99831.75;;;9.33;100.00
62849;BME280;48941;49.516;8.286;2023-11-21T04:55:21;99837.19;;;9.32;100.00
62849;BME280;48941;49.516;8.286;2023-11-21T04:57:49;99841.78;;;9.30;100.00
62849;BME280;48941;49.516;8.286;2023-11-21T05:00:19;99845.75;;;9.35;100.00
62849;BME280;48941;49.516;8.286;2023-11-21T05:02:48;99847.81;;;9.32;100.00
62849;BME280;48941;49.516;8.286;2023-11-21T05:05:16;99843.34;;;9.32;100.00
62849;BME280;48941;49.516;8.286;2023-11-21T05:07:44;99846.28;;;9.29;100.00
62849;BME280;48941;49.516;8.286;2023-11-21T05:10:12;99849.88;;;9.28;100.00
62849;BME280;48941;49.516;8.286;2023-11-21T05:12:42;99856.31;;;9.26;100.00
62849;BME280;48941;49.516;8.286;2023-11-21T05:15:14;99857.41;;;9.23;100.00
62849;BME280;48941;49.516;8.286;2023-11-21T05:17:43;99856.31;;;9.26;100.00
62849;BME280;48941;49.516;8.286;2023-11-21T05:20:13;99860.19;;;9.22;100.00
62849;BME280;48941;49.516;8.286;2023-11-21T05:22:45;99864.28;;;9.26;100.00
62849;BME280;48941;49.516;8.286;2023-11-21T05:25:15;99866.53;;;9.30;100.00
62849;BME280;48941;49.516;8.286;2023-11-21T05:27:45;99869.19;;;9.30;100.00
62849;BME280;48941;49.516;8.286;2023-11-21T05:30:13;99878.28;;;9.28;100.00
62849;BME280;48941;49.516;8.286;2023-11-21T05:32:42;99879.28;;;9.27;100.00
62849;BME280;48941;49.516;8.286;2023-11-21T05:35:10;99884.72;;;9.25;100.00
62849;BME280;48941;49.516;8.286;2023-11-21T05:37:43;99888.31;;;9.24;100.00
62849;BME280;48941;49.516;8.286;2023-11-21T05:40:12;99900.66;;;9.25;100.00
62849;BME280;48941;49.516;8.286;2023-11-21T05:42:40;99899.94;;;9.23;100.00
62849;BME280;48941;49.516;8.286;2023-11-21T05:45:09;99898.09;;;9.24;100.00
62849;BME280;48941;49.516;8.286;2023-11-21T05:47:39;99903.31;;;9.25;100.00
62849;BME280;48941;49.516;8.286;2023-11-21T05:50:10;99908.75;;;9.24;100.00
62849;BME280;48941;49.516;8.286;2023-11-21T05:52:39;99901.59;;;9.24;100.00
62849;BME280;48941;49.516;8.286;2023-11-21T05:55:08;99905.13;;;9.25;100.00
62849;BME280;48941;49.516;8.286;2023-11-21T05:57:37;99910.56;;;9.23;100.00
62849;BME280;48941;49.516;8.286;2023-11-21T06:00:07;99914.31;;;9.21;100.00
62849;BME280;48941;49.516;8.286;2023-11-21T06:02:39;99913.56;;;9.18;100.00
62849;BME280;48941;49.516;8.286;2023-11-21T06:05:09;99917.94;;;9.20;100.00
62849;BME280;48941;49.516;8.286;2023-11-21T06:07:37;99914.44;;;9.19;100.00
62849;BME280;48941;49.516;8.286;2023-11-21T06:10:08;99912.75;;;9.18;100.00
62849;BME280;48941;49.516;8.286;2023-11-21T06:12:36;99918.78;;;9.20;100.00
62849;BME280;48941;49.516;8.286;2023-11-21T06:15:05;99929.50;;;9.18;100.00
62849;BME280;48941;49.516;8.286;2023-11-21T06:17:35;99924.19;;;9.18;100.00
62849;BME280;48941;49.516;8.286;2023-11-21T06:20:05;99932.78;;;9.22;100.00
62849;BME280;48941;49.516;8.286;2023-11-21T06:22:38;99936.31;;;9.23;100.00
62849;BME280;48941;49.516;8.286;2023-11-21T06:25:08;99937.38;;;9.20;100.00
62849;BME280;48941;49.516;8.286;2023-11-21T06:27:37;99937.25;;;9.22;100.00
62849;BME280;48941;49.516;8.286;2023-11-21T06:30:06;99940.03;;;9.20;100.00
62849;BME280;48941;49.516;8.286;2023-11-21T06:32:36;99945.47;;;9.18;100.00
62849;BME280;48941;49.516;8.286;2023-11-21T06:35:06;99942.81;;;9.18;100.00
62849;BME280;48941;49.516;8.286;2023-11-21T06:37:34;99943.78;;;9.17;100.00
62849;BME280;48941;49.516;8.286;2023-11-21T06:40:05;99957.78;;;9.20;100.00
62849;BME280;48941;49.516;8.286;2023-11-21T06:42:33;99953.44;;;9.18;100.00
62849;BME280;48941;49.516;8.286;2023-11-21T06:45:01;99962.28;;;9.19;100.00
62849;BME280;48941;49.516;8.286;2023-11-21T06:47:30;99971.06;;;9.20;100.00
62849;BME280;48941;49.516;8.286;2023-11-21T06:49:59;99969.38;;;9.18;100.00
62849;BME280;48941;49.516;8.286;2023-11-21T06:52:28;99974.84;;;9.17;100.00
62849;BME280;48941;49.516;8.286;2023-11-21T06:54:55;99981.81;;;9.18;100.00
62849;BME280;48941;49.516;8.286;2023-11-21T06:57:25;99982.66;;;9.18;100.00
62849;BME280;48941;49.516;8.286;2023-11-21T06:59:53;99985.09;;;9.22;100.00
62849;BME280;48941;49.516;8.286;2023-11-21T07:02:20;99989.56;;;9.21;100.00
62849;BME280;48941;49.516;8.286;2023-11-21T07:04:48;99983.41;;;9.21;100.00
62849;BME280;48941;49.516;8.286;2023-11-21T07:07:17;99995.84;;;9.20;100.00
62849;BME280;48941;49.516;8.286;2023-11-21T07:09:45;100002.84;;;9.21;100.00
62849;BME280;48941;49.516;8.286;2023-11-21T07:12:14;100002.97;;;9.20;100.00
62849;BME280;48941;49.516;8.286;2023-11-21T07:14:44;100013.22;;;9.24;100.00
62849;BME280;48941;49.516;8.286;2023-11-21T07:17:12;100007.06;;;9.24;100.00
62849;BME280;48941;49.516;8.286;2023-11-21T07:19:40;100008.88;;;9.23;100.00
62849;BME280;48941;49.516;8.286;2023-11-21T07:22:08;100021.34;;;9.23;100.00
62849;BME280;48941;49.516;8.286;2023-11-21T07:24:36;100023.00;;;9.24;100.00
62849;BME280;48941;49.516;8.286;2023-11-21T07:27:04;100025.66;;;9.24;100.00
62849;BME280;48941;49.516;8.286;2023-11-21T07:29:32;100025.53;;;9.25;100.00
62849;BME280;48941;49.516;8.286;2023-11-21T07:32:02;100024.56;;;9.26;100.00
62849;BME280;48941;49.516;8.286;2023-11-21T07:34:30;100033.03;;;9.31;100.00
62849;BME280;48941;49.516;8.286;2023-11-21T07:36:58;100030.25;;;9.33;100.00
62849;BME280;48941;49.516;8.286;2023-11-21T07:39:26;100032.66;;;9.36;100.00
62849;BME280;48941;49.516;8.286;2023-11-21T07:41:54;100044.00;;;9.38;100.00
62849;BME280;48941;49.516;8.286;2023-11-21T07:44:22;100041.34;;;9.38;100.00
62849;BME280;48941;49.516;8.286;2023-11-21T07:46:50;100046.53;;;9.40;100.00
62849;BME280;48941;49.516;8.286;2023-11-21T07:49:20;100048.25;;;9.41;100.00
62849;BME280;48941;49.516;8.286;2023-11-21T07:51:50;100054.41;;;9.41;100.00
62849;BME280;48941;49.516;8.286;2023-11-21T07:54:19;100045.31;;;9.44;100.00
62849;BME280;48941;49.516;8.286;2023-11-21T07:56:48;100054.00;;;9.46;100.00
62849;BME280;48941;49.516;8.286;2023-11-21T07:59:18;100052.91;;;9.48;100.00
62849;BME280;48941;49.516;8.286;2023-11-21T08:01:46;100058.22;;;9.48;100.00
62849;BME280;48941;49.516;8.286;2023-11-21T08:04:14;100058.84;;;9.52;100.00
62849;BME280;48941;49.516;8.286;2023-11-21T08:06:43;100058.13;;;9.50;100.00
62849;BME280;48941;49.516;8.286;2023-11-21T08:09:11;100067.91;;;9.49;100.00
62849;BME280;48941;49.516;8.286;2023-11-21T08:11:39;100075.78;;;9.51;100.00
62849;BME280;48941;49.516;8.286;2023-11-21T08:14:07;100073.84;;;9.53;100.00
62849;BME280;48941;49.516;8.286;2023-11-21T08:16:35;100081.44;;;9.57;100.00
62849;BME280;48941;49.516;8.286;2023-11-21T08:19:03;100082.16;;;9.60;100.00
62849;BME280;48941;49.516;8.286;2023-11-21T08:21:32;100085.53;;;9.62;100.00
62849;BME280;48941;49.516;8.286;2023-11-21T08:24:02;100091.69;;;9.62;100.00
62849;BME280;48941;49.516;8.286;2023-11-21T08:26:31;100089.03;;;9.62;100.00
62849;BME280;48941;49.516;8.286;2023-11-21T08:28:58;100091.09;;;9.59;100.00
62849;BME280;48941;49.516;8.286;2023-11-21T08:31:28;100088.91;;;9.64;100.00
62849;BME280;48941;49.516;8.286;2023-11-21T08:33:56;100098.94;;;9.60;100.00
62849;BME280;48941;49.516;8.286;2023-11-21T08:36:24;100101.00;;;9.56;100.00
62849;BME280;48941;49.516;8.286;2023-11-21T08:38:52;100101.84;;;9.57;100.00
62849;BME280;48941;49.516;8.286;2023-11-21T08:41:21;100111.88;;;9.53;100.00
62849;BME280;48941;49.516;8.286;2023-11-21T08:43:50;100109.13;;;9.55;100.00
62849;BME280;48941;49.516;8.286;2023-11-21T08:46:18;100107.53;;;9.52;100.00
62849;BME280;48941;49.516;8.286;2023-11-21T08:48:47;100111.16;;;9.51;100.00
62849;BME280;48941;49.516;8.286;2023-11-21T08:51:15;100114.53;;;9.53;100.00
62849;BME280;48941;49.516;8.286;2023-11-21T08:53:43;100123.25;;;9.55;100.00
62849;BME280;48941;49.516;8.286;2023-11-21T08:56:12;100118.88;;;9.54;100.00
62849;BME280;48941;49.516;8.286;2023-11-21T08:58:42;100121.44;;;9.56;100.00
62849;BME280;48941;49.516;8.286;2023-11-21T09:01:09;100129.41;;;9.56;100.00
62849;BME280;48941;49.516;8.286;2023-11-21T09:03:39;100132.91;;;9.56;100.00
62849;BME280;48941;49.516;8.286;2023-11-21T09:06:07;100138.47;;;9.53;100.00
62849;BME280;48941;49.516;8.286;2023-11-21T09:08:37;100145.34;;;9.56;100.00
62849;BME280;48941;49.516;8.286;2023-11-21T09:11:05;100154.16;;;9.56;100.00
62849;BME280;48941;49.516;8.286;2023-11-21T09:13:34;100145.47;;;9.54;100.00
62849;BME280;48941;49.516;8.286;2023-11-21T09:16:05;100149.72;;;9.57;100.00
62849;BME280;48941;49.516;8.286;2023-11-21T09:18:33;100160.09;;;9.60;100.00
62849;BME280;48941;49.516;8.286;2023-11-21T09:21:02;100159.88;;;9.63;100.00
62849;BME280;48941;49.516;8.286;2023-11-21T09:23:31;100165.06;;;9.65;100.00
62849;BME280;48941;49.516;8.286;2023-11-21T09:25:59;100160.47;;;9.67;100.00
62849;BME280;48941;49.516;8.286;2023-11-21T09:28:29;100171.34;;;9.64;100.00
62849;BME280;48941;49.516;8.286;2023-11-21T09:30:57;100165.63;;;9.68;100.00
62849;BME280;48941;49.516;8.286;2023-11-21T09:33:26;100171.94;;;9.67;100.00
62849;BME280;48941;49.516;8.286;2023-11-21T09:35:54;100172.28;;;9.74;100.00
62849;BME280;48941;49.516;8.286;2023-11-21T09:38:22;100179.91;;;9.79;100.00
62849;BME280;48941;49.516;8.286;2023-11-21T09:40:50;100181.38;;;9.83;100.00
62849;BME280;48941;49.516;8.286;2023-11-21T09:43:20;100186.91;;;9.80;100.00
62849;BME280;48941;49.516;8.286;2023-11-21T09:45:56;100179.91;;;9.79;100.00
62849;BME280;48941;49.516;8.286;2023-11-21T09:48:26;100187.03;;;9.78;100.00
62849;BME280;48941;49.516;8.286;2023-11-21T09:50:55;100193.94;;;9.81;100.00
62849;BME280;48941;49.516;8.286;2023-11-21T09:53:25;100198.38;;;9.80;100.00
62849;BME280;48941;49.516;8.286;2023-11-21T09:55:56;100202.38;;;9.86;100.00
62849;BME280;48941;49.516;8.286;2023-11-21T09:58:27;100206.03;;;9.85;100.00
62849;BME280;48941;49.516;8.286;2023-11-21T10:00:55;100206.97;;;9.84;100.00
62849;BME280;48941;49.516;8.286;2023-11-21T10:03:26;100205.16;;;9.84;100.00
62849;BME280;48941;49.516;8.286;2023-11-21T10:05:56;100210.25;;;9.87;100.00
62849;BME280;48941;49.516;8.286;2023-11-21T10:08:27;100212.06;;;9.87;100.00
62849;BME280;48941;49.516;8.286;2023-11-21T10:11:14;100210.69;;;9.92;100.00
62849;BME280;48941;49.516;8.286;2023-11-21T10:13:43;100210.84;;;9.91;100.00
62849;BME280;48941;49.516;8.286;2023-11-21T10:16:14;100214.72;;;9.87;100.00
62849;BME280;48941;49.516;8.286;2023-11-21T10:18:45;100213.38;;;9.92;100.00
62849;BME280;48941;49.516;8.286;2023-11-21T10:21:13;100208.91;;;9.93;100.00
62849;BME280;48941;49.516;8.286;2023-11-21T10:23:41;100215.78;;;9.95;100.00
62849;BME280;48941;49.516;8.286;2023-11-21T10:26:12;100213.03;;;9.97;100.00
62849;BME280;48941;49.516;8.286;2023-11-21T10:28:57;100224.00;;;9.92;100.00
62849;BME280;48941;49.516;8.286;2023-11-21T10:31:26;100223.78;;;9.95;100.00
62849;BME280;48941;49.516;8.286;2023-11-21T10:33:58;100226.44;;;9.95;100.00
62849;BME280;48941;49.516;8.286;2023-11-21T10:36:38;100220.16;;;9.96;100.00
62849;BME280;48941;49.516;8.286;2023-11-21T10:39:06;100225.47;;;9.96;100.00
62849;BME280;48941;49.516;8.286;2023-11-21T10:41:34;100227.28;;;9.96;100.00
62849;BME280;48941;49.516;8.286;2023-11-21T10:44:02;100229.81;;;9.97;100.00
62849;BME280;48941;49.516;8.286;2023-11-21T10:46:33;100229.69;;;9.99;100.00
62849;BME280;48941;49.516;8.286;2023-11-21T10:49:04;100230.31;;;10.03;100.00
62849;BME280;48941;49.516;8.286;2023-11-21T10:51:31;100240.94;;;10.03;100.00
62849;BME280;48941;49.516;8.286;2023-11-21T10:53:59;100246.00;;;10.06;100.00
62849;BME280;48941;49.516;8.286;2023-11-21T10:56:28;100238.16;;;10.04;100.00
62849;BME280;48941;49.516;8.286;2023-11-21T10:58:56;100240.69;;;10.06;100.00
62849;BME280;48941;49.516;8.286;2023-11-21T11:01:27;100238.53;;;10.11;100.00
62849;BME280;48941;49.516;8.286;2023-11-21T11:03:58;100245.16;;;10.16;100.00
62849;BME280;48941;49.516;8.286;2023-11-21T11:06:28;100242.84;;;10.23;100.00
62849;BME280;48941;49.516;8.286;2023-11-21T11:08:56;100243.56;;;10.25;100.00
62849;BME280;48941;49.516;8.286;2023-11-21T11:11:26;100244.41;;;10.26;100.00
62849;BME280;48941;49.516;8.286;2023-11-21T11:13:54;100232.56;;;10.30;100.00
62849;BME280;48941;49.516;8.286;2023-11-21T11:16:23;100238.50;;;10.33;100.00
62849;BME280;48941;49.516;8.286;2023-11-21T11:18:52;100241.75;;;10.37;100.00
62849;BME280;48941;49.516;8.286;2023-11-21T11:21:26;100233.97;;;10.45;100.00
62849;BME280;48941;49.516;8.286;2023-11-21T11:24:11;100237.25;;;10.49;100.00
62849;BME280;48941;49.516;8.286;2023-11-21T11:26:46;100234.41;;;10.62;100.00
62849;BME280;48941;49.516;8.286;2023-11-21T11:29:23;100223.94;;;10.70;100.00
62849;BME280;48941;49.516;8.286;2023-11-21T11:32:02;100224.75;;;10.82;100.00
62849;BME280;48941;49.516;8.286;2023-11-21T11:34:35;100223.41;;;10.87;100.00
62849;BME280;48941;49.516;8.286;2023-11-21T11:37:07;100217.66;;;10.92;100.00
62849;BME280;48941;49.516;8.286;2023-11-21T11:39:38;100220.81;;;10.97;100.00
62849;BME280;48941;49.516;8.286;2023-11-21T11:42:12;100222.22;;;11.01;100.00
62849;BME280;48941;49.516;8.286;2023-11-21T11:44:51;100222.03;;;11.14;100.00
62849;BME280;48941;49.516;8.286;2023-11-21T11:47:21;100218.88;;;11.30;100.00
62849;BME280;48941;49.516;8.286;2023-11-21T11:49:57;100218.22;;;11.38;100.00
62849;BME280;48941;49.516;8.286;2023-11-21T11:52:35;100217.97;;;11.41;100.00
62849;BME280;48941;49.516;8.286;2023-11-21T11:55:06;100220.97;;;11.47;100.00
62849;BME280;48941;49.516;8.286;2023-11-21T11:57:37;100229.25;;;11.54;100.00
62849;BME280;48941;49.516;8.286;2023-11-21T12:00:10;100216.91;;;11.53;100.00
62849;BME280;48941;49.516;8.286;2023-11-21T12:02:44;100220.16;;;11.56;100.00
62849;BME280;48941;49.516;8.286;2023-11-21T12:05:14;100222.56;;;11.60;100.00
62849;BME280;48941;49.516;8.286;2023-11-21T12:07:43;100231.84;;;11.65;100.00
62849;BME280;48941;49.516;8.286;2023-11-21T12:10:15;100232.31;;;11.70;100.00
62849;BME280;48941;49.516;8.286;2023-11-21T12:12:48;100225.31;;;11.79;100.00
62849;BME280;48941;49.516;8.286;2023-11-21T12:15:17;100231.59;;;11.78;100.00
62849;BME280;48941;49.516;8.286;2023-11-21T12:17:46;100238.22;;;11.84;100.00
62849;BME280;48941;49.516;8.286;2023-11-21T12:20:18;100243.44;;;11.85;100.00
62849;BME280;48941;49.516;8.286;2023-11-21T12:22:47;100245.47;;;11.93;100.00
62849;BME280;48941;49.516;8.286;2023-11-21T12:25:18;100238.75;;;11.99;100.00
62849;BME280;48941;49.516;8.286;2023-11-21T12:27:48;100245.66;;;12.11;100.00
62849;BME280;48941;49.516;8.286;2023-11-21T12:30:18;100238.53;;;12.21;100.00
62849;BME280;48941;49.516;8.286;2023-11-21T12:32:48;100237.84;;;12.39;100.00
62849;BME280;48941;49.516;8.286;2023-11-21T12:35:18;100239.81;;;12.56;100.00
62849;BME280;48941;49.516;8.286;2023-11-21T12:37:48;100246.75;;;12.59;100.00
62849;BME280;48941;49.516;8.286;2023-11-21T12:40:18;100248.25;;;12.51;100.00
62849;BME280;48941;49.516;8.286;2023-11-21T12:42:47;100249.69;;;12.55;100.00
62849;BME280;48941;49.516;8.286;2023-11-21T12:45:20;100250.69;;;12.54;100.00
62849;BME280;48941;49.516;8.286;2023-11-21T12:47:49;100250.09;;;12.51;100.00
62849;BME280;48941;49.516;8.286;2023-11-21T12:50:21;100259.09;;;12.50;100.00
62849;BME280;48941;49.516;8.286;2023-11-21T12:52:51;100266.94;;;12.42;100.00
62849;BME280;48941;49.516;8.286;2023-11-21T12:55:22;100262.31;;;12.44;100.00
62849;BME280;48941;49.516;8.286;2023-11-21T12:57:51;100267.53;;;12.45;100.00
62849;BME280;48941;49.516;8.286;2023-11-21T13:00:28;100265.16;;;12.42;100.00
62849;BME280;48941;49.516;8.286;2023-11-21T13:02:59;100261.06;;;12.38;100.00